createdAt,value
2023-02-14T00:01:57.359Z,18.67
2023-02-14T00:04:25.833Z,19.30
2023-02-14T00:06:54.286Z,18.60
2023-02-14T00:09:22.602Z,18.97
2023-02-14T00:11:51.350Z,18.47
2023-02-14T00:14:37.067Z,19.50
2023-02-14T00:17:07.303Z,20.90
2023-02-14T00:19:36.196Z,20.27
2023-02-14T00:22:05.593Z,19.43
2023-02-14T00:24:34.404Z,20.80
2023-02-14T00:27:02.723Z,20.93
2023-02-14T00:29:33.398Z,19.00
2023-02-14T00:32:04.051Z,19.33
2023-02-14T00:34:36.523Z,19.97
2023-02-14T00:37:05.159Z,18.90
2023-02-14T00:39:33.595Z,17.90
2023-02-14T00:42:02.037Z,16.80
2023-02-14T00:44:30.580Z,16.87
2023-02-14T00:46:59.331Z,20.97
2023-02-14T00:49:27.639Z,19.07
2023-02-14T00:51:57.630Z,17.53
2023-02-14T00:54:26.290Z,18.23
2023-02-14T00:56:54.649Z,21.87
2023-02-14T00:59:22.987Z,19.87
2023-02-14T01:01:51.383Z,21.43
2023-02-14T01:04:19.808Z,18.47
2023-02-14T01:06:48.155Z,19.70
2023-02-14T01:09:17.889Z,20.47
2023-02-14T01:11:46.236Z,18.67
2023-02-14T01:14:16.308Z,19.27
2023-02-14T01:16:44.808Z,18.50
2023-02-14T01:19:13.323Z,19.07
2023-02-14T01:21:45.380Z,18.03
2023-02-14T01:24:14.077Z,18.30
2023-02-14T01:26:45.894Z,18.23
2023-02-14T01:29:14.391Z,16.47
2023-02-14T01:31:42.783Z,16.23
2023-02-14T01:34:11.240Z,14.10
2023-02-14T01:36:41.061Z,14.07
2023-02-14T01:39:13.611Z,13.07
2023-02-14T01:41:48.544Z,14.07
2023-02-14T01:44:59.541Z,13.90
2023-02-14T01:47:30.416Z,13.43
2023-02-14T01:50:03.816Z,11.37
2023-02-14T01:52:38.031Z,11.20
2023-02-14T01:55:12.219Z,12.53
2023-02-14T01:57:45.331Z,13.77
2023-02-14T02:00:32.372Z,12.40
2023-02-14T02:03:02.454Z,14.13
2023-02-14T02:05:30.982Z,14.47
2023-02-14T02:08:01.450Z,15.10
2023-02-14T02:10:30.395Z,16.63
2023-02-14T02:13:07.518Z,18.27
2023-02-14T02:15:51.052Z,15.67
2023-02-14T02:18:28.200Z,16.20
2023-02-14T02:21:32.658Z,19.20
2023-02-14T02:24:27.480Z,16.50
2023-02-14T02:27:31.542Z,17.90
2023-02-14T02:30:56.609Z,17.77
2023-02-14T02:34:07.831Z,18.00
2023-02-14T02:37:02.132Z,16.43
2023-02-14T02:39:57.715Z,16.70
2023-02-14T02:42:37.407Z,16.90
2023-02-14T02:45:15.068Z,18.23
2023-02-14T02:47:53.803Z,18.50
2023-02-14T02:50:46.711Z,20.53
2023-02-14T02:53:23.286Z,19.80
2023-02-14T02:56:17.105Z,21.03
2023-02-14T02:58:52.182Z,20.70
2023-02-14T03:01:25.618Z,19.10
2023-02-14T03:04:18.423Z,20.03
2023-02-14T03:06:47.473Z,20.23
2023-02-14T03:09:54.635Z,20.20
2023-02-14T03:12:48.602Z,20.70
2023-02-14T03:15:30.084Z,19.10
2023-02-14T03:18:06.098Z,19.43
2023-02-14T03:20:44.898Z,19.40
2023-02-14T03:23:21.876Z,19.63
2023-02-14T03:26:07.164Z,21.10
2023-02-14T03:28:46.970Z,18.17
2023-02-14T03:31:25.282Z,16.47
2023-02-14T03:34:02.630Z,17.43
2023-02-14T03:36:38.554Z,18.63
2023-02-14T03:39:14.743Z,17.50
2023-02-14T03:41:52.200Z,16.93
2023-02-14T03:44:28.456Z,16.73
2023-02-14T03:47:03.911Z,17.50
2023-02-14T03:49:37.594Z,15.63
2023-02-14T03:52:17.488Z,15.53
2023-02-14T03:54:49.053Z,16.40
2023-02-14T03:57:25.526Z,15.70
2023-02-14T03:59:55.124Z,16.30
2023-02-14T04:02:30.600Z,15.93
2023-02-14T04:05:02.083Z,16.30
2023-02-14T04:07:30.607Z,16.20
2023-02-14T04:09:58.944Z,17.00
2023-02-14T04:12:37.467Z,16.07
2023-02-14T04:15:07.815Z,16.20
2023-02-14T04:17:53.767Z,16.90
2023-02-14T04:20:22.426Z,18.10
2023-02-14T04:22:55.028Z,17.17
2023-02-14T04:25:24.931Z,16.77
2023-02-14T04:27:54.647Z,17.80
2023-02-14T04:30:23.351Z,16.00
2023-02-14T04:32:51.673Z,18.00
2023-02-14T04:35:20.075Z,18.83
2023-02-14T04:37:48.443Z,18.23
2023-02-14T04:40:17.922Z,18.73
2023-02-14T04:42:47.193Z,18.27
2023-02-14T04:45:17.011Z,17.70
2023-02-14T04:47:45.334Z,16.93
2023-02-14T04:50:15.005Z,17.57
2023-02-14T04:52:43.348Z,16.10
2023-02-14T04:55:12.229Z,16.10
2023-02-14T04:57:40.665Z,16.07
2023-02-14T05:00:10.562Z,16.53
2023-02-14T05:02:40.296Z,15.83
2023-02-14T05:05:09.805Z,16.60
2023-02-14T05:07:38.622Z,17.50
2023-02-14T05:10:08.380Z,16.50
2023-02-14T05:12:36.932Z,16.30
2023-02-14T05:15:05.670Z,17.70
2023-02-14T05:17:34.059Z,18.97
2023-02-14T05:20:04.295Z,18.23
2023-02-14T05:22:32.712Z,17.57
2023-02-14T05:25:01.253Z,19.50
2023-02-14T05:27:29.648Z,20.40
2023-02-14T05:29:58.099Z,20.17
2023-02-14T05:32:26.570Z,18.27
2023-02-14T05:34:54.875Z,18.13
2023-02-14T05:37:24.577Z,20.17
2023-02-14T05:39:53.042Z,20.77
2023-02-14T05:42:21.323Z,20.10
2023-02-14T05:44:49.693Z,21.07
2023-02-14T05:47:18.064Z,22.23
2023-02-14T05:49:46.512Z,22.70
2023-02-14T05:52:14.955Z,24.53
2023-02-14T05:54:44.900Z,21.20
2023-02-14T05:57:13.269Z,23.33
2023-02-14T05:59:43.998Z,23.90
2023-02-14T06:02:12.480Z,22.23
2023-02-14T06:04:41.236Z,24.30
2023-02-14T06:07:09.994Z,22.90
2023-02-14T06:09:38.311Z,21.37
2023-02-14T06:12:08.911Z,20.90
2023-02-14T06:14:37.570Z,22.00
2023-02-14T06:17:06.328Z,21.83
2023-02-14T06:19:34.741Z,24.17
2023-02-14T06:22:03.070Z,22.17
2023-02-14T06:24:31.442Z,23.53
2023-02-14T06:27:00.957Z,21.87
2023-02-14T06:29:30.748Z,22.33
2023-02-14T06:32:05.740Z,22.90
2023-02-14T06:34:34.733Z,23.50
2023-02-14T06:37:03.110Z,21.80
2023-02-14T06:39:31.573Z,21.70
2023-02-14T06:41:59.876Z,22.87
2023-02-14T06:44:28.317Z,21.80
2023-02-14T06:46:58.028Z,20.87
2023-02-14T06:49:26.493Z,22.60
2023-02-14T06:51:54.855Z,20.50
2023-02-14T06:54:23.320Z,19.47
2023-02-14T06:56:51.870Z,21.40
2023-02-14T06:59:20.224Z,21.03
2023-02-14T07:01:48.923Z,21.70
2023-02-14T07:04:18.825Z,23.40
2023-02-14T07:06:47.734Z,23.77
2023-02-14T07:09:17.911Z,24.40
2023-02-14T07:11:46.950Z,23.63
2023-02-14T07:14:15.583Z,24.77
2023-02-14T07:16:43.957Z,26.67
2023-02-14T07:19:12.426Z,26.23
2023-02-14T07:21:42.236Z,26.10
2023-02-14T07:24:10.616Z,25.80
2023-02-14T07:26:39.089Z,25.33
2023-02-14T07:29:07.806Z,25.93
2023-02-14T07:31:36.250Z,27.57
2023-02-14T07:34:04.745Z,24.03
2023-02-14T07:36:33.205Z,24.40
2023-02-14T07:39:02.954Z,25.83
2023-02-14T07:41:31.323Z,25.37
2023-02-14T07:44:00.244Z,26.90
2023-02-14T07:46:28.791Z,25.03
2023-02-14T07:48:57.233Z,25.47
2023-02-14T07:51:25.520Z,27.20
2023-02-14T07:53:53.847Z,28.07
2023-02-14T07:56:23.610Z,27.57
2023-02-14T07:58:51.991Z,28.37
2023-02-14T08:01:21.077Z,28.57
2023-02-14T08:03:50.079Z,29.33
2023-02-14T08:06:19.963Z,27.57
2023-02-14T08:08:49.375Z,27.50
2023-02-14T08:11:38.324Z,29.63
2023-02-14T08:14:08.183Z,27.83
2023-02-14T08:16:38.160Z,27.60
2023-02-14T08:19:06.692Z,31.33
2023-02-14T08:21:35.079Z,29.27
2023-02-14T08:24:03.620Z,30.90
2023-02-14T08:26:32.556Z,29.63
2023-02-14T08:29:02.338Z,32.23
2023-02-14T08:31:36.102Z,29.70
2023-02-14T08:34:05.440Z,27.70
2023-02-14T08:36:34.454Z,29.87
2023-02-14T08:39:04.501Z,31.40
2023-02-14T08:41:33.148Z,29.50
2023-02-14T08:44:02.055Z,28.47
2023-02-14T08:46:31.897Z,31.60
2023-02-14T08:49:00.478Z,32.57
2023-02-14T08:51:28.883Z,30.60
2023-02-14T08:53:57.264Z,30.70
2023-02-14T08:56:25.585Z,29.73
2023-02-14T08:58:55.194Z,28.27
2023-02-14T09:01:23.758Z,30.37
2023-02-14T09:03:53.585Z,29.10
2023-02-14T09:06:22.047Z,29.97
2023-02-14T09:08:50.942Z,32.97
2023-02-14T09:11:22.940Z,34.53
2023-02-14T09:13:53.133Z,33.97
2023-02-14T09:16:23.462Z,33.80
2023-02-14T09:18:54.641Z,32.40
2023-02-14T09:21:25.850Z,31.90
2023-02-14T09:23:54.838Z,31.27
2023-02-14T09:26:23.402Z,32.10
2023-02-14T09:28:51.817Z,30.53
2023-02-14T09:31:24.299Z,31.80
2023-02-14T09:34:11.399Z,32.47
2023-02-14T09:36:57.779Z,33.47
2023-02-14T09:39:26.285Z,32.90
2023-02-14T09:42:11.124Z,31.80
2023-02-14T09:44:43.373Z,33.03
2023-02-14T09:47:22.097Z,30.73
2023-02-14T09:49:54.382Z,29.70
2023-02-14T09:52:27.375Z,32.50
2023-02-14T09:54:59.074Z,31.50
2023-02-14T09:57:40.073Z,33.77
2023-02-14T10:00:21.653Z,32.27
2023-02-14T10:03:03.027Z,33.63
2023-02-14T10:05:38.583Z,29.90
2023-02-14T10:08:23.954Z,30.37
2023-02-14T10:11:08.106Z,32.10
2023-02-14T10:13:44.844Z,31.93
2023-02-14T10:16:21.814Z,29.10
2023-02-14T10:18:58.175Z,30.87
2023-02-14T10:21:34.927Z,29.97
2023-02-14T10:24:12.438Z,29.17
2023-02-14T10:26:42.041Z,31.97
2023-02-14T10:29:16.543Z,30.60
2023-02-14T10:31:55.795Z,28.73
2023-02-14T10:34:34.432Z,29.50
2023-02-14T10:37:25.290Z,28.97
2023-02-14T10:40:11.493Z,27.67
2023-02-14T10:42:52.686Z,25.27
2023-02-14T10:45:33.963Z,21.97
2023-02-14T10:48:13.297Z,21.43
2023-02-14T10:50:55.929Z,20.70
2023-02-14T10:53:38.351Z,19.60
2023-02-14T10:56:18.594Z,19.87
2023-02-14T10:58:50.452Z,20.07
2023-02-14T11:01:20.785Z,20.70
2023-02-14T11:03:58.569Z,20.30
2023-02-14T11:06:27.205Z,19.13
2023-02-14T11:08:57.458Z,20.70
2023-02-14T11:11:31.527Z,19.90
2023-02-14T11:13:59.972Z,19.50
2023-02-14T11:16:33.893Z,19.63
2023-02-14T11:19:20.148Z,21.53
2023-02-14T11:21:51.809Z,19.60
2023-02-14T11:24:29.908Z,19.77
2023-02-14T11:27:01.950Z,20.53
2023-02-14T11:29:36.238Z,21.60
2023-02-14T11:32:10.754Z,19.90
2023-02-14T11:34:42.552Z,19.30
2023-02-14T11:37:28.003Z,18.47
2023-02-14T11:40:01.436Z,21.60
2023-02-14T11:42:44.423Z,20.63
2023-02-14T11:45:32.911Z,20.00
2023-02-14T11:48:22.362Z,21.57
2023-02-14T11:51:05.349Z,19.00
2023-02-14T11:53:46.032Z,20.60
2023-02-14T11:56:17.810Z,19.57
2023-02-14T11:58:53.097Z,21.17
2023-02-14T12:01:27.818Z,19.43
2023-02-14T12:04:01.059Z,20.23
2023-02-14T12:06:33.037Z,20.00
2023-02-14T12:09:14.481Z,19.70
2023-02-14T12:11:57.599Z,20.43
2023-02-14T12:14:30.101Z,21.00
2023-02-14T12:17:05.790Z,20.10
2023-02-14T12:19:43.759Z,20.50
2023-02-14T12:22:18.082Z,20.70
2023-02-14T12:24:55.178Z,20.93
2023-02-14T12:27:29.194Z,20.03
2023-02-14T12:30:05.294Z,22.10
2023-02-14T12:32:34.921Z,21.20
2023-02-14T12:35:07.839Z,20.70
2023-02-14T12:38:02.685Z,19.57
2023-02-14T12:40:46.730Z,18.80
2023-02-14T12:43:45.767Z,20.50
2023-02-14T12:46:36.404Z,19.90
2023-02-14T12:49:49.609Z,21.10
2023-02-14T12:52:42.836Z,18.90
2023-02-14T12:55:34.376Z,19.53
2023-02-14T12:58:12.879Z,19.57
2023-02-14T13:01:04.414Z,16.60
2023-02-14T13:03:59.156Z,21.17
2023-02-14T13:06:32.084Z,19.97
2023-02-14T13:09:19.525Z,20.13
2023-02-14T13:12:02.641Z,19.33
2023-02-14T13:14:51.456Z,20.30
2023-02-14T13:17:34.909Z,18.80
2023-02-14T13:20:30.962Z,20.77
2023-02-14T13:23:06.169Z,18.43
2023-02-14T13:25:42.879Z,20.90
2023-02-14T13:28:15.687Z,20.60
2023-02-14T13:30:44.170Z,20.10
2023-02-14T13:33:28.369Z,19.90
2023-02-14T13:36:01.618Z,19.60
2023-02-14T13:38:32.263Z,19.60
2023-02-14T13:41:02.961Z,19.53
2023-02-14T13:43:52.676Z,19.30
2023-02-14T13:46:54.207Z,20.13
2023-02-14T13:49:31.731Z,18.17
2023-02-14T13:52:03.834Z,20.63
2023-02-14T13:54:44.890Z,19.50
2023-02-14T13:57:33.939Z,19.13
2023-02-14T14:00:41.591Z,20.40
2023-02-14T14:03:16.558Z,19.23
2023-02-14T14:06:04.724Z,20.30
2023-02-14T14:08:49.422Z,20.30
2023-02-14T14:11:58.524Z,18.40
2023-02-14T14:14:39.743Z,21.00
2023-02-14T14:17:28.746Z,21.53
2023-02-14T14:19:58.082Z,21.77
2023-02-14T14:22:29.128Z,20.57
2023-02-14T14:25:06.418Z,21.47
2023-02-14T14:27:41.448Z,20.30
2023-02-14T14:30:20.527Z,20.57
2023-02-14T14:32:48.992Z,19.80
2023-02-14T14:35:21.998Z,18.37
2023-02-14T14:37:54.580Z,20.83
2023-02-14T14:40:28.793Z,20.93
2023-02-14T14:43:01.948Z,20.37
2023-02-14T14:45:32.403Z,22.00
2023-02-14T14:48:09.250Z,19.20
2023-02-14T14:50:39.852Z,20.77
2023-02-14T14:53:20.788Z,19.60
2023-02-14T14:55:52.301Z,21.07
2023-02-14T14:58:40.307Z,22.60
2023-02-14T15:01:16.088Z,21.97
2023-02-14T15:03:45.608Z,22.23
2023-02-14T15:06:20.089Z,22.53
2023-02-14T15:08:51.481Z,21.03
2023-02-14T15:11:42.150Z,21.13
2023-02-14T15:14:18.202Z,21.10
2023-02-14T15:16:49.607Z,21.50
2023-02-14T15:19:21.925Z,19.03
2023-02-14T15:21:51.089Z,21.23
2023-02-14T15:24:21.417Z,20.60
2023-02-14T15:26:53.468Z,22.53
2023-02-14T15:29:26.463Z,22.20
2023-02-14T15:31:57.514Z,21.17
2023-02-14T15:34:28.787Z,20.50
2023-02-14T15:37:03.565Z,22.90
2023-02-14T15:39:38.048Z,21.33
2023-02-14T15:42:07.457Z,20.80
2023-02-14T15:44:35.991Z,21.77
2023-02-14T15:47:06.987Z,22.37
2023-02-14T15:49:40.938Z,20.07
2023-02-14T15:52:14.177Z,20.10
2023-02-14T15:54:47.395Z,22.70
2023-02-14T15:57:25.163Z,22.30
2023-02-14T15:59:54.009Z,21.43
2023-02-14T16:02:36.091Z,24.07
2023-02-14T16:05:08.020Z,22.77
2023-02-14T16:07:36.684Z,23.07
2023-02-14T16:10:27.909Z,23.80
2023-02-14T16:13:00.735Z,22.40
2023-02-14T16:15:31.831Z,24.90
2023-02-14T16:18:01.142Z,22.87
2023-02-14T16:20:40.926Z,24.03
2023-02-14T16:23:18.776Z,23.40
2023-02-14T16:25:49.172Z,22.27
2023-02-14T16:28:18.878Z,23.20
2023-02-14T16:30:49.678Z,21.90
2023-02-14T16:33:22.864Z,23.47
2023-02-14T16:35:51.971Z,23.93
2023-02-14T16:38:23.215Z,22.40
2023-02-14T16:40:55.517Z,23.93
2023-02-14T16:43:23.892Z,23.47
2023-02-14T16:45:52.316Z,24.73
2023-02-14T16:48:21.179Z,21.07
2023-02-14T16:50:49.666Z,23.47
2023-02-14T16:53:26.859Z,22.57
2023-02-14T16:55:58.402Z,23.83
2023-02-14T16:58:33.071Z,23.73
2023-02-14T17:01:01.686Z,22.73
2023-02-14T17:03:30.300Z,23.27
2023-02-14T17:06:01.363Z,23.00
2023-02-14T17:08:30.707Z,25.47
2023-02-14T17:11:02.178Z,23.07
2023-02-14T17:13:34.830Z,23.93
2023-02-14T17:16:04.595Z,21.90
2023-02-14T17:18:37.156Z,21.43
2023-02-14T17:21:06.740Z,23.43
2023-02-14T17:23:35.145Z,25.23
2023-02-14T17:26:06.278Z,23.10
2023-02-14T17:28:34.894Z,20.70
2023-02-14T17:31:03.582Z,22.10
2023-02-14T17:33:33.683Z,22.73
2023-02-14T17:36:06.703Z,22.70
2023-02-14T17:38:36.216Z,22.23
2023-02-14T17:41:14.970Z,22.77
2023-02-14T17:43:43.796Z,23.33
2023-02-14T17:46:14.282Z,23.80
2023-02-14T17:48:45.354Z,23.90
2023-02-14T17:51:14.742Z,23.40
2023-02-14T17:53:43.714Z,22.73
2023-02-14T17:56:17.942Z,23.30
2023-02-14T17:58:47.814Z,25.20
2023-02-14T18:01:18.900Z,25.03
2023-02-14T18:03:47.675Z,25.23
2023-02-14T18:06:16.699Z,22.97
2023-02-14T18:08:49.333Z,23.23
2023-02-14T18:11:20.924Z,23.13
2023-02-14T18:13:49.741Z,23.50
2023-02-14T18:16:20.277Z,26.07
2023-02-14T18:18:49.369Z,24.77
2023-02-14T18:21:20.957Z,25.67
2023-02-14T18:23:49.794Z,26.00
2023-02-14T18:26:20.327Z,25.40
2023-02-14T18:28:50.952Z,23.87
2023-02-14T18:31:20.235Z,24.43
2023-02-14T18:33:50.699Z,24.40
2023-02-14T18:36:24.182Z,24.27
2023-02-14T18:38:54.759Z,25.87
2023-02-14T18:41:29.579Z,25.70
2023-02-14T18:43:58.362Z,27.20
2023-02-14T18:46:29.047Z,26.73
2023-02-14T18:48:58.607Z,24.97
2023-02-14T18:51:29.357Z,26.73
2023-02-14T18:53:59.665Z,26.50
2023-02-14T18:56:32.644Z,26.70
2023-02-14T18:59:03.906Z,25.47
2023-02-14T19:01:36.903Z,27.50
2023-02-14T19:04:08.953Z,25.33
2023-02-14T19:06:37.844Z,26.80
2023-02-14T19:09:11.456Z,28.60
2023-02-14T19:11:42.046Z,28.60
2023-02-14T19:14:12.671Z,26.63
2023-02-14T19:16:50.124Z,29.13
2023-02-14T19:19:18.819Z,31.43
2023-02-14T19:21:47.555Z,32.33
2023-02-14T19:24:18.312Z,32.07
2023-02-14T19:26:48.413Z,35.30
2023-02-14T19:29:19.577Z,34.80
2023-02-14T19:31:50.145Z,33.60
2023-02-14T19:34:21.158Z,35.70
2023-02-14T19:36:52.817Z,32.37
2023-02-14T19:39:23.094Z,31.53
2023-02-14T19:41:53.344Z,33.87
2023-02-14T19:44:23.145Z,35.17
2023-02-14T19:46:54.323Z,35.07
2023-02-14T19:49:23.282Z,31.00
2023-02-14T19:51:52.338Z,35.00
2023-02-14T19:54:24.093Z,37.30
2023-02-14T19:56:56.091Z,35.17
2023-02-14T19:59:24.702Z,35.43
2023-02-14T20:01:54.871Z,31.33
2023-02-14T20:04:26.276Z,34.00
2023-02-14T20:06:55.203Z,31.00
2023-02-14T20:09:25.649Z,32.40
2023-02-14T20:11:57.992Z,30.67
2023-02-14T20:14:28.874Z,28.47
2023-02-14T20:17:00.723Z,28.20
2023-02-14T20:19:33.594Z,27.23
2023-02-14T20:22:02.381Z,28.07
2023-02-14T20:24:33.270Z,29.90
2023-02-14T20:27:03.287Z,29.67
2023-02-14T20:29:31.956Z,31.97
2023-02-14T20:32:03.611Z,30.00
2023-02-14T20:34:32.318Z,28.00
2023-02-14T20:37:00.919Z,30.10
2023-02-14T20:39:31.561Z,36.27
2023-02-14T20:42:00.118Z,38.40
2023-02-14T20:44:30.123Z,37.63
2023-02-14T20:46:59.122Z,35.63
2023-02-14T20:49:30.735Z,33.77
2023-02-14T20:51:59.688Z,35.00
2023-02-14T20:54:30.109Z,34.60
2023-02-14T20:56:59.151Z,31.80
2023-02-14T20:59:29.183Z,33.17
2023-02-14T21:01:59.507Z,34.87
2023-02-14T21:04:28.444Z,33.27
2023-02-14T21:06:57.878Z,33.33
2023-02-14T21:09:27.137Z,35.67
2023-02-14T21:11:55.479Z,35.50
2023-02-14T21:14:23.853Z,34.83
2023-02-14T21:16:53.512Z,38.00
2023-02-14T21:19:22.314Z,39.80
2023-02-14T21:21:50.702Z,37.97
2023-02-14T21:24:19.189Z,39.20
2023-02-14T21:26:47.611Z,36.63
2023-02-14T21:29:16.312Z,35.50
2023-02-14T21:31:44.910Z,33.73
2023-02-14T21:34:17.210Z,33.07
2023-02-14T21:36:45.557Z,35.40
2023-02-14T21:39:14.216Z,33.67
2023-02-14T21:41:42.566Z,35.50
2023-02-14T21:44:31.296Z,35.30
2023-02-14T21:46:58.690Z,34.03
2023-02-14T21:49:45.826Z,35.87
2023-02-14T21:52:14.223Z,34.93
2023-02-14T21:54:42.997Z,35.37
2023-02-14T21:57:11.391Z,36.00
2023-02-14T21:59:41.838Z,33.63
2023-02-14T22:02:12.091Z,35.40
2023-02-14T22:04:43.300Z,34.67
2023-02-14T22:07:11.683Z,34.83
2023-02-14T22:09:40.006Z,33.60
2023-02-14T22:12:08.842Z,36.17
2023-02-14T22:14:37.193Z,34.50
2023-02-14T22:17:05.685Z,35.80
2023-02-14T22:19:35.285Z,33.80
2023-02-14T22:22:05.648Z,32.13
2023-02-14T22:24:33.983Z,34.77
2023-02-14T22:27:02.331Z,34.80
2023-02-14T22:29:30.862Z,32.43
2023-02-14T22:31:59.330Z,31.70
2023-02-14T22:34:28.194Z,32.20
2023-02-14T22:36:56.583Z,29.80
2023-02-14T22:39:26.337Z,31.20
2023-02-14T22:41:54.690Z,31.63
2023-02-14T22:44:23.063Z,31.97
2023-02-14T22:46:51.544Z,34.23
2023-02-14T22:49:19.964Z,32.27
2023-02-14T22:51:48.291Z,33.37
2023-02-14T22:54:17.594Z,31.00
2023-02-14T22:56:50.174Z,33.17
2023-02-14T22:59:21.739Z,32.27
2023-02-14T23:01:51.445Z,30.13
2023-02-14T23:04:22.967Z,28.00
2023-02-14T23:06:53.077Z,27.17
2023-02-14T23:09:22.235Z,26.93
2023-02-14T23:11:52.328Z,26.70
2023-02-14T23:14:39.215Z,30.20
2023-02-14T23:17:25.552Z,27.33
2023-02-14T23:20:11.292Z,27.73
2023-02-14T23:22:41.545Z,28.03
2023-02-14T23:25:12.770Z,30.40
2023-02-14T23:27:44.580Z,31.50
2023-02-14T23:30:16.098Z,33.50
2023-02-14T23:32:45.121Z,30.43
2023-02-14T23:35:13.772Z,32.00
2023-02-14T23:37:42.533Z,34.63
2023-02-14T23:40:11.924Z,31.70
2023-02-14T23:42:40.248Z,33.67
2023-02-14T23:45:28.263Z,34.47
2023-02-14T23:47:56.679Z,31.33
2023-02-14T23:50:25.036Z,32.00
2023-02-14T23:52:53.507Z,29.23
2023-02-14T23:55:21.854Z,29.37
2023-02-14T23:57:50.164Z,31.10
